Terminal Aerodrome Forecast
Issued by NWS

Home | Current Version | Previous Version | Graphics & Text | Print | Product List | Glossary On
Versions: 1 2 3 4 5 6 7 8 9 10 11 12 13 14 15 16 17 18 19 20 21 22 23 24 25 26 27 28 29
201
FTUS43 KLOT 260520
TAFORD
TAF
KORD 260520Z 2606/2712 28012KT P6SM VCSH BKN100
     FM260800 27012G18KT P6SM SCT100 BKN250
     FM261500 27018G30KT P6SM SCT050
     FM270000 27011G16KT P6SM SCT050=

USA.gov is the U.S. government's official web portal to all federal, state and local government web resources and services.